Wetterdaten: Woche 11.02.02 - 17.02.02 (KW7)
Datum Zeit Temperatur Luftfeuchte Luftdruck Regenmenge Wind Richtung Taupunkt Windchill
11.02.2002 00:00 4.5 C 88 % 1022.0 hPa 0.0 l/m 5.2 km/h (1 Bft) SO 2.6 C 3.4 C
11.02.2002 01:00 3.8 C 89 % 1022.0 hPa 0.0 l/m 3.1 km/h (1 Bft) O 2.2 C 3.1 C
11.02.2002 02:00 4.0 C 89 % 1022.0 hPa 0.0 l/m 5.0 km/h (1 Bft) SO 2.4 C 3.0 C
11.02.2002 03:00 4.6 C 86 % 1021.6 hPa 0.0 l/m 0.9 km/h (0 Bft) SO 2.4 C 4.5 C
11.02.2002 04:00 4.3 C 87 % 1021.1 hPa 0.0 l/m 2.8 km/h (1 Bft) SO 2.2 C 3.8 C
11.02.2002 05:00 4.4 C 85 % 1020.9 hPa 0.0 l/m 9.0 km/h (2 Bft) SO 2.0 C 2.4 C
11.02.2002 06:00 5.1 C 82 % 1020.9 hPa 0.0 l/m 5.0 km/h (1 Bft) SO 2.2 C 4.2 C
11.02.2002 07:00 5.0 C 82 % 1020.9 hPa 0.0 l/m 4.5 km/h (1 Bft) SO 2.2 C 4.2 C
11.02.2002 08:00 5.8 C 80 % 1021.1 hPa 0.0 l/m 2.3 km/h (1 Bft) W 2.5 C 5.5 C
11.02.2002 09:00 7.1 C 69 % 1021.7 hPa 0.0 l/m 6.0 km/h (2 Bft) SO 1.8 C 6.1 C
11.02.2002 10:00 7.7 C 66 % 1022.0 hPa 0.0 l/m 5.3 km/h (1 Bft) S-SO 1.8 C 6.9 C
11.02.2002 11:00 9.0 C 61 % 1021.8 hPa 0.0 l/m 5.7 km/h (1 Bft) SO 2.0 C 8.3 C
11.02.2002 12:00 10.2 C 55 % 1020.9 hPa 0.0 l/m 9.3 km/h (2 Bft) SO 1.5 C 9.7 C
11.02.2002 13:00 11.5 C 49 % 1020.7 hPa 0.0 l/m 16.1 km/h (3 Bft) W-NW 1.1 C 11.5 C
11.02.2002 14:00 12.1 C 52 % 1019.9 hPa 0.0 l/m 11.4 km/h (2 Bft) W-NW 2.5 C 12.1 C
11.02.2002 15:00 12.1 C 50 % 1019.9 hPa 0.0 l/m 8.3 km/h (2 Bft) S-SO 1.9 C 12.1 C
11.02.2002 16:00 11.4 C 51 % 1019.8 hPa 0.0 l/m 6.3 km/h (2 Bft) SO 1.5 C 11.4 C
11.02.2002 17:00 10.9 C 54 % 1019.9 hPa 0.0 l/m 5.1 km/h (1 Bft) SO 2.0 C 10.9 C
11.02.2002 18:00 10.0 C 59 % 1019.9 hPa 0.0 l/m 7.3 km/h (2 Bft) SO 2.4 C 9.9 C
11.02.2002 19:00 9.7 C 61 % 1020.2 hPa 0.0 l/m 3.0 km/h (1 Bft) SO 2.6 C 9.4 C
11.02.2002 20:00 10.1 C 60 % 1020.9 hPa 0.0 l/m 7.0 km/h (2 Bft) W 2.7 C 10.0 C
11.02.2002 21:00 11.7 C 54 % 1020.9 hPa 0.0 l/m 26.1 km/h (4 Bft) W-NW 2.6 C 11.7 C
11.02.2002 22:00 12.1 C 51 % 1020.3 hPa 0.0 l/m 35.3 km/h (5 Bft) W-NW 2.4 C 12.1 C
11.02.2002 23:00 11.6 C 53 % 1020.9 hPa 0.0 l/m 26.4 km/h (4 Bft) W-NW 2.4 C 11.6 C
12.02.2002 00:00 11.0 C 57 % 1020.9 hPa 0.0 l/m 25.9 km/h (4 Bft) W-NW 2.8 C 11.0 C
12.02.2002 01:00 10.3 C 60 % 1020.9 hPa 0.0 l/m 26.4 km/h (4 Bft) W-NW 2.9 C 9.5 C
12.02.2002 02:00 9.8 C 62 % 1020.9 hPa 0.0 l/m 23.5 km/h (4 Bft) W-NW 2.8 C 6.8 C
12.02.2002 03:00 10.4 C 59 % 1020.9 hPa 0.0 l/m 28.9 km/h (5 Bft) W-NW 2.8 C 10.1 C
12.02.2002 04:00 10.6 C 60 % 1021.4 hPa 0.0 l/m 29.9 km/h (5 Bft) W-NW 3.0 C 10.6 C
12.02.2002 05:00 10.7 C 59 % 1021.9 hPa 0.0 l/m 28.1 km/h (4 Bft) W-NW 2.9 C 10.7 C
12.02.2002 06:00 11.1 C 56 % 1022.0 hPa 0.0 l/m 26.0 km/h (4 Bft) W-NW 2.6 C 11.1 C
12.02.2002 07:00 11.3 C 55 % 1022.2 hPa 0.0 l/m 26.4 km/h (4 Bft) W-NW 2.5 C 11.3 C
12.02.2002 08:00 11.5 C 54 % 1023.0 hPa 0.0 l/m 29.7 km/h (5 Bft) W-NW 2.5 C 11.5 C
12.02.2002 09:00 11.5 C 50 % 1023.6 hPa 0.0 l/m 22.8 km/h (4 Bft) W 1.4 C 11.5 C
12.02.2002 10:00 11.1 C 52 % 1024.1 hPa 0.0 l/m 12.0 km/h (2 Bft) S-SW 1.6 C 11.1 C
12.02.2002 11:00 12.4 C 46 % 1024.1 hPa 0.0 l/m 16.4 km/h (3 Bft) W 1.2 C 12.4 C
12.02.2002 12:00 13.9 C 41 % 1024.1 hPa 0.0 l/m 23.2 km/h (4 Bft) W-NW 0.8 C 13.9 C
12.02.2002 13:00 13.9 C 40 % 1023.9 hPa 0.0 l/m 30.5 km/h (5 Bft) W-NW 0.3 C 13.9 C
12.02.2002 14:00 13.8 C 40 % 1023.9 hPa 0.0 l/m 26.8 km/h (4 Bft) W-NW 0.5 C 13.8 C
12.02.2002 15:00 14.5 C 40 % 1024.0 hPa 0.0 l/m 26.4 km/h (4 Bft) W-NW 1.0 C 14.5 C
12.02.2002 16:00 14.7 C 42 % 1023.0 hPa 0.0 l/m 23.1 km/h (4 Bft) W-NW 1.8 C 14.7 C
12.02.2002 17:00 13.4 C 47 % 1023.1 hPa 0.0 l/m 19.0 km/h (3 Bft) W-NW 2.4 C 13.4 C
12.02.2002 18:00 12.5 C 51 % 1024.0 hPa 0.0 l/m 14.0 km/h (3 Bft) W-NW 2.8 C 12.5 C
12.02.2002 19:00 12.1 C 55 % 1024.1 hPa 0.0 l/m 9.0 km/h (2 Bft) W-NW 3.4 C 12.1 C
12.02.2002 20:00 11.8 C 56 % 1024.1 hPa 0.0 l/m 3.7 km/h (1 Bft) W-NW 3.3 C 11.8 C
12.02.2002 21:00 11.4 C 56 % 1024.1 hPa 0.0 l/m 1.8 km/h (1 Bft) W 2.8 C 11.4 C
12.02.2002 22:00 11.0 C 59 % 1024.1 hPa 0.0 l/m 2.2 km/h (1 Bft) W 3.2 C 11.0 C
12.02.2002 23:00 10.7 C 60 % 1023.3 hPa 0.0 l/m 2.8 km/h (1 Bft) S-SW 3.2 C 10.7 C
13.02.2002 00:00 10.4 C 57 % 1023.1 hPa 0.0 l/m 7.2 km/h (2 Bft) SO 2.4 C 10.4 C
13.02.2002 01:00 10.0 C 58 % 1023.0 hPa 0.0 l/m 10.5 km/h (2 Bft) SO 2.1 C 9.1 C
13.02.2002 02:00 9.7 C 60 % 1023.0 hPa 0.0 l/m 11.1 km/h (2 Bft) S-SO 2.4 C 8.1 C
13.02.2002 03:00 9.6 C 64 % 1023.0 hPa 0.0 l/m 9.6 km/h (2 Bft) S-SO 3.2 C 8.3 C
13.02.2002 04:00 9.8 C 63 % 1022.2 hPa 0.0 l/m 8.8 km/h (2 Bft) SO 3.1 C 8.6 C
13.02.2002 05:00 9.7 C 64 % 1022.0 hPa 0.0 l/m 8.4 km/h (2 Bft) S 3.2 C 8.6 C
13.02.2002 06:00 9.7 C 65 % 1022.0 hPa 0.0 l/m 9.6 km/h (2 Bft) SW 3.4 C 8.4 C
13.02.2002 07:00 10.0 C 62 % 1022.0 hPa 0.0 l/m 8.8 km/h (2 Bft) SW 3.1 C 9.3 C
13.02.2002 08:00 10.2 C 62 % 1022.0 hPa 0.0 l/m 10.9 km/h (2 Bft) S-SW 3.2 C 10.0 C
13.02.2002 09:00 10.7 C 56 % 1021.5 hPa 0.0 l/m 8.1 km/h (2 Bft) SO 2.2 C 10.7 C
13.02.2002 10:00 11.5 C 53 % 1020.9 hPa 0.0 l/m 9.9 km/h (2 Bft) SO 2.2 C 11.5 C
13.02.2002 11:00 12.4 C 50 % 1020.9 hPa 0.0 l/m 9.5 km/h (2 Bft) W-NW 2.2 C 12.4 C
13.02.2002 12:00 13.4 C 46 % 1020.0 hPa 0.0 l/m 15.5 km/h (3 Bft) W-NW 2.2 C 13.4 C
13.02.2002 13:00 13.9 C 43 % 1019.0 hPa 0.0 l/m 21.4 km/h (4 Bft) W-NW 1.6 C 13.9 C
13.02.2002 14:00 13.2 C 46 % 1018.7 hPa 0.0 l/m 22.3 km/h (4 Bft) W-NW 2.0 C 13.2 C
13.02.2002 15:00 12.8 C 49 % 1017.8 hPa 0.0 l/m 13.6 km/h (3 Bft) W-NW 2.4 C 12.8 C
13.02.2002 16:00 12.5 C 55 % 1017.8 hPa 0.0 l/m 9.0 km/h (2 Bft) W-NW 3.5 C 12.5 C
13.02.2002 17:00 11.5 C 59 % 1017.2 hPa 0.0 l/m 7.8 km/h (2 Bft) W-NW 3.9 C 11.5 C
13.02.2002 18:00 11.0 C 58 % 1016.8 hPa 0.0 l/m 6.7 km/h (2 Bft) W 3.2 C 11.0 C
13.02.2002 19:00 9.8 C 60 % 1016.8 hPa 0.0 l/m 2.8 km/h (1 Bft) SO 2.4 C 9.7 C
13.02.2002 20:00 8.7 C 63 % 1016.8 hPa 0.0 l/m 2.1 km/h (1 Bft) O 2.1 C 8.6 C
13.02.2002 21:00 7.9 C 66 % 1016.8 hPa 0.0 l/m 2.9 km/h (1 Bft) O 1.9 C 7.5 C
13.02.2002 22:00 7.2 C 71 % 1016.5 hPa 0.0 l/m 1.0 km/h (0 Bft) O 2.2 C 7.1 C
13.02.2002 23:00 7.0 C 73 % 1015.7 hPa 0.0 l/m 1.6 km/h (1 Bft) O 2.4 C 7.0 C
14.02.2002 00:00 6.6 C 76 % 1014.8 hPa 0.0 l/m 0.3 km/h (0 Bft) O 2.7 C 6.6 C
14.02.2002 01:00 6.4 C 80 % 1014.5 hPa 0.0 l/m 0.0 km/h (0 Bft) N 3.3 C 6.4 C
14.02.2002 02:00 5.7 C 84 % 1013.6 hPa 0.0 l/m 0.7 km/h (0 Bft) O-SO 3.3 C 5.6 C
14.02.2002 03:00 5.8 C 84 % 1013.6 hPa 0.0 l/m 0.0 km/h (0 Bft) N 3.3 C 5.8 C
14.02.2002 04:00 5.9 C 82 % 1013.0 hPa 0.0 l/m 0.2 km/h (0 Bft) O 3.1 C 5.9 C
14.02.2002 05:00 6.0 C 81 % 1013.6 hPa 0.0 l/m 0.8 km/h (0 Bft) O-SO 3.0 C 6.0 C
14.02.2002 06:00 6.7 C 76 % 1012.9 hPa 0.0 l/m 1.7 km/h (1 Bft) NO 2.8 C 6.6 C
14.02.2002 07:00 7.1 C 71 % 1012.6 hPa 0.0 l/m 10.4 km/h (2 Bft) NO 2.2 C 5.3 C
14.02.2002 08:00 7.1 C 70 % 1013.5 hPa 0.0 l/m 7.1 km/h (2 Bft) NO 2.0 C 5.9 C
14.02.2002 09:00 7.4 C 67 % 1013.4 hPa 0.0 l/m 8.1 km/h (2 Bft) NO 1.8 C 6.0 C
14.02.2002 10:00 7.7 C 66 % 1013.6 hPa 0.0 l/m 10.1 km/h (2 Bft) NO 1.7 C 6.0 C
14.02.2002 11:00 7.6 C 65 % 1013.6 hPa 0.0 l/m 9.7 km/h (2 Bft) NO 1.6 C 6.1 C
14.02.2002 12:00 7.5 C 67 % 1013.7 hPa 0.0 l/m 14.2 km/h (3 Bft) NO 1.7 C 5.2 C
14.02.2002 13:00 7.0 C 67 % 1014.7 hPa 0.0 l/m 13.7 km/h (3 Bft) NO 1.2 C 4.6 C
14.02.2002 14:00 6.5 C 67 % 1014.7 hPa 0.0 l/m 9.8 km/h (2 Bft) O-NO 0.8 C 4.9 C
14.02.2002 15:00 6.3 C 67 % 1015.6 hPa 0.0 l/m 7.4 km/h (2 Bft) NO 0.6 C 5.1 C
14.02.2002 16:00 6.2 C 65 % 1016.2 hPa 0.0 l/m 6.3 km/h (2 Bft) NO 0.1 C 5.1 C
14.02.2002 17:00 5.9 C 65 % 1016.8 hPa 0.0 l/m 6.1 km/h (2 Bft) NO -0.1 C 4.8 C
14.02.2002 18:00 5.9 C 64 % 1016.8 hPa 0.0 l/m 6.2 km/h (2 Bft) N-NO -0.5 C 5.0 C
14.02.2002 19:00 5.7 C 63 % 1017.1 hPa 0.0 l/m 7.4 km/h (2 Bft) NO -0.8 C 4.4 C
14.02.2002 20:00 5.5 C 61 % 1017.8 hPa 0.0 l/m 11.3 km/h (2 Bft) NO -1.3 C 3.4 C
14.02.2002 21:00 5.3 C 60 % 1017.8 hPa 0.0 l/m 9.1 km/h (2 Bft) NO -1.8 C 3.5 C
14.02.2002 22:00 5.0 C 58 % 1018.4 hPa 0.0 l/m 10.4 km/h (2 Bft) NO -2.5 C 3.0 C
14.02.2002 23:00 4.4 C 58 % 1018.9 hPa 0.0 l/m 7.0 km/h (2 Bft) NO -3.0 C 3.1 C
15.02.2002 00:00 3.6 C 61 % 1018.9 hPa 0.0 l/m 6.8 km/h (2 Bft) NO -3.2 C 2.1 C
15.02.2002 01:00 3.2 C 61 % 1018.9 hPa 0.0 l/m 3.9 km/h (1 Bft) N-NO -3.5 C 2.3 C
15.02.2002 02:00 3.0 C 62 % 1019.0 hPa 0.0 l/m 2.7 km/h (1 Bft) O -3.5 C 2.5 C
15.02.2002 03:00 2.8 C 63 % 1019.4 hPa 0.0 l/m 2.2 km/h (1 Bft) N-NO -3.5 C 2.5 C
15.02.2002 04:00 2.6 C 63 % 1019.7 hPa 0.0 l/m 4.5 km/h (1 Bft) N-NO -3.7 C 1.7 C
15.02.2002 05:00 2.3 C 63 % 1019.9 hPa 0.0 l/m 7.3 km/h (2 Bft) N-NO -4.0 C 0.6 C
15.02.2002 06:00 1.9 C 65 % 1020.0 hPa 0.0 l/m 2.5 km/h (1 Bft) N-NO -4.1 C 1.3 C
15.02.2002 07:00 1.6 C 64 % 1020.9 hPa 0.0 l/m 4.9 km/h (1 Bft) N-NO -4.4 C 0.4 C
15.02.2002 08:00 1.6 C 64 % 1021.3 hPa 0.0 l/m 2.0 km/h (1 Bft) NO -4.4 C 1.2 C
15.02.2002 09:00 1.7 C 63 % 1022.0 hPa 0.0 l/m 3.1 km/h (1 Bft) O -4.5 C 1.0 C
15.02.2002 10:00 1.9 C 61 % 1022.2 hPa 0.0 l/m 10.1 km/h (2 Bft) O -4.7 C -0.6 C
15.02.2002 11:00 2.3 C 58 % 1023.0 hPa 0.0 l/m 12.0 km/h (2 Bft) O -5.1 C -0.6 C
15.02.2002 12:00 2.8 C 56 % 1023.0 hPa 0.0 l/m 16.2 km/h (3 Bft) O -5.0 C -0.9 C
15.02.2002 13:00 3.5 C 54 % 1023.0 hPa 0.0 l/m 8.1 km/h (2 Bft) O -5.1 C 1.6 C
15.02.2002 14:00 4.0 C 56 % 1022.2 hPa 0.0 l/m 15.1 km/h (3 Bft) O-SO -4.0 C 0.8 C
15.02.2002 15:00 3.9 C 58 % 1022.0 hPa 0.0 l/m 19.4 km/h (3 Bft) O-SO -3.6 C -0.0 C
15.02.2002 16:00 3.9 C 59 % 1022.0 hPa 0.0 l/m 12.6 km/h (3 Bft) O-SO -3.3 C 0.9 C
15.02.2002 17:00 2.3 C 66 % 1022.0 hPa 0.0 l/m 3.3 km/h (1 Bft) O-SO -3.4 C 1.5 C
15.02.2002 18:00 1.0 C 72 % 1022.6 hPa 0.0 l/m 2.2 km/h (1 Bft) O-SO -3.4 C 0.5 C
15.02.2002 19:00 0.5 C 76 % 1023.0 hPa 0.0 l/m 3.6 km/h (1 Bft) O-SO -3.2 C -0.3 C
15.02.2002 20:00 -1.0 C 83 % 1022.7 hPa 0.0 l/m 2.3 km/h (1 Bft) O-SO -3.6 C -1.5 C
15.02.2002 21:00 -1.4 C 83 % 1022.5 hPa 0.0 l/m 2.1 km/h (1 Bft) O-SO -3.9 C -1.8 C
15.02.2002 22:00 -1.8 C 87 % 1022.6 hPa 0.0 l/m 1.6 km/h (1 Bft) O-SO -3.7 C -1.9 C
15.02.2002 23:00 -1.0 C 86 % 1022.8 hPa 0.0 l/m 0.0 km/h (0 Bft) N -3.1 C -1.0 C
16.02.2002 00:00 0.5 C 79 % 1023.0 hPa 0.0 l/m 0.4 km/h (0 Bft) NO -2.7 C 0.4 C
16.02.2002 01:00 1.9 C 63 % 1023.0 hPa 0.0 l/m 0.5 km/h (0 Bft) N-NO -4.5 C 1.9 C
16.02.2002 02:00 1.8 C 61 % 1023.0 hPa 0.0 l/m 1.0 km/h (0 Bft) O-NO -4.8 C 1.8 C
16.02.2002 03:00 1.5 C 60 % 1023.0 hPa 0.0 l/m 1.3 km/h (1 Bft) O-SO -5.3 C 1.3 C
16.02.2002 04:00 1.3 C 62 % 1023.0 hPa 0.0 l/m 0.0 km/h (0 Bft) N -5.1 C 1.3 C
16.02.2002 05:00 1.2 C 63 % 1023.8 hPa 0.0 l/m 0.3 km/h (0 Bft) O -5.1 C 1.2 C
16.02.2002 06:00 1.1 C 64 % 1023.8 hPa 0.0 l/m 0.8 km/h (0 Bft) N -4.9 C 1.1 C
16.02.2002 07:00 0.9 C 63 % 1023.7 hPa 0.0 l/m 1.7 km/h (1 Bft) N-NO -5.3 C 0.7 C
16.02.2002 08:00 1.0 C 61 % 1024.1 hPa 0.0 l/m 1.9 km/h (1 Bft) O -5.7 C 0.6 C
16.02.2002 09:00 1.4 C 59 % 1024.6 hPa 0.0 l/m 3.2 km/h (1 Bft) O-SO -5.7 C 0.5 C
16.02.2002 10:00 1.8 C 58 % 1025.1 hPa 0.0 l/m 0.8 km/h (0 Bft) O -5.6 C 1.7 C
16.02.2002 11:00 3.1 C 52 % 1025.1 hPa 0.0 l/m 0.9 km/h (0 Bft) NO -5.8 C 3.0 C
16.02.2002 12:00 3.9 C 50 % 1025.1 hPa 0.0 l/m 4.3 km/h (1 Bft) O-SO -5.5 C 2.9 C
16.02.2002 13:00 4.5 C 48 % 1025.1 hPa 0.0 l/m 1.3 km/h (1 Bft) W-NW -5.5 C 4.2 C
16.02.2002 14:00 5.9 C 45 % 1024.8 hPa 0.0 l/m 4.5 km/h (1 Bft) W-NW -5.1 C 5.0 C
16.02.2002 15:00 6.3 C 47 % 1024.1 hPa 0.0 l/m 5.0 km/h (1 Bft) W-NW -4.2 C 5.3 C
16.02.2002 16:00 5.2 C 49 % 1025.0 hPa 0.0 l/m 1.3 km/h (1 Bft) O -4.6 C 5.0 C
16.02.2002 17:00 4.2 C 57 % 1025.1 hPa 0.0 l/m 0.6 km/h (0 Bft) NW -3.7 C 4.1 C
16.02.2002 18:00 2.9 C 65 % 1025.7 hPa 0.0 l/m 0.3 km/h (0 Bft) O-SO -3.0 C 2.9 C
16.02.2002 19:00 2.3 C 72 % 1026.2 hPa 0.0 l/m 4.1 km/h (1 Bft) O-SO -2.2 C 1.8 C
16.02.2002 20:00 1.3 C 78 % 1026.2 hPa 0.0 l/m 0.1 km/h (0 Bft) O-SO -2.1 C 1.3 C
16.02.2002 21:00 -0.2 C 83 % 1026.2 hPa 0.0 l/m 0.2 km/h (0 Bft) O-SO -2.7 C -0.2 C
16.02.2002 22:00 -1.2 C 86 % 1026.2 hPa 0.0 l/m 3.8 km/h (1 Bft) O-SO -3.3 C -2.4 C
16.02.2002 23:00 -2.0 C 87 % 1026.2 hPa 0.0 l/m 0.1 km/h (0 Bft) N -3.9 C -2.0 C
17.02.2002 00:00 -2.8 C 89 % 1026.2 hPa 0.0 l/m 0.2 km/h (0 Bft) O-NO -4.3 C -2.8 C
17.02.2002 01:00 -3.1 C 90 % 1026.2 hPa 0.0 l/m 0.1 km/h (0 Bft) O-NO -4.5 C -3.1 C
17.02.2002 02:00 -3.1 C 91 % 1025.2 hPa 0.0 l/m 1.6 km/h (1 Bft) O-SO -4.3 C -3.3 C
17.02.2002 03:00 -3.6 C 90 % 1025.1 hPa 0.0 l/m 0.4 km/h (0 Bft) O-SO -4.9 C -3.6 C
17.02.2002 04:00 -3.8 C 90 % 1025.1 hPa 0.0 l/m 0.2 km/h (0 Bft) O-SO -5.3 C -3.8 C
17.02.2002 05:00 -3.9 C 89 % 1025.1 hPa 0.0 l/m 0.0 km/h (0 Bft) N -5.4 C -3.9 C
17.02.2002 06:00 -3.9 C 90 % 1025.1 hPa 0.0 l/m 3.6 km/h (1 Bft) O-SO -5.4 C -5.1 C
17.02.2002 07:00 -4.2 C 89 % 1025.1 hPa 0.0 l/m 0.0 km/h (0 Bft) N -5.8 C -4.2 C
17.02.2002 08:00 -3.7 C 89 % 1025.1 hPa 0.0 l/m 1.0 km/h (0 Bft) O-SO -5.2 C -4.0 C
17.02.2002 09:00 -2.3 C 86 % 1025.1 hPa 0.0 l/m 0.0 km/h (0 Bft) N -4.2 C -2.3 C
17.02.2002 10:00 -0.5 C 82 % 1025.1 hPa 0.0 l/m 0.0 km/h (0 Bft) N -3.3 C -0.5 C
17.02.2002 11:00 1.4 C 76 % 1025.1 hPa 0.0 l/m 0.2 km/h (0 Bft) W-NW -2.4 C 1.4 C
17.02.2002 12:00 3.2 C 66 % 1024.3 hPa 0.0 l/m 2.7 km/h (1 Bft) W-NW -2.5 C 2.7 C
17.02.2002 13:00 5.5 C 55 % 1023.4 hPa 0.0 l/m 2.5 km/h (1 Bft) W -2.7 C 5.2 C
17.02.2002 14:00 7.3 C 53 % 1022.3 hPa 0.0 l/m 2.7 km/h (1 Bft) W-NW -1.7 C 7.0 C
17.02.2002 15:00 8.0 C 55 % 1021.1 hPa 0.0 l/m 1.5 km/h (1 Bft) W-NW -0.4 C 7.9 C
17.02.2002 16:00 7.8 C 55 % 1020.9 hPa 0.0 l/m 2.6 km/h (1 Bft) W-NW -0.6 C 7.5 C
17.02.2002 17:00 5.9 C 60 % 1021.4 hPa 0.0 l/m 0.4 km/h (0 Bft) W-NW -1.3 C 5.8 C
17.02.2002 18:00 3.2 C 71 % 1022.0 hPa 0.0 l/m 1.2 km/h (1 Bft) O-SO -1.6 C 3.1 C
17.02.2002 19:00 1.5 C 79 % 1022.0 hPa 0.0 l/m 4.3 km/h (1 Bft) O-SO -1.7 C 0.7 C
17.02.2002 20:00 0.4 C 84 % 1022.0 hPa 0.0 l/m 1.4 km/h (1 Bft) O-SO -2.0 C 0.1 C
17.02.2002 21:00 -0.6 C 87 % 1022.0 hPa 0.0 l/m 0.5 km/h (0 Bft) O -2.5 C -0.6 C
17.02.2002 22:00 -1.4 C 89 % 1022.0 hPa 0.0 l/m 0.4 km/h (0 Bft) O-SO -2.9 C -1.4 C
17.02.2002 23:00 -1.8 C 88 % 1022.0 hPa 0.0 l/m 0.0 km/h (0 Bft) N -3.4 C -1.8 C
Min-Datum _ 17.02.02 12.02.02 14.02.02 - 11.02.02 - 16.02.02 17.02.02
_ Min-Zeit 07:04 16:14 07:00 - 01:07 - 11:36 06:16
Minimum _ -4.3 C 34 % 1012.6 hPa - 0.0 km/h (0 Bft) - -6.6 C -7.8 C
Max-Datum _ 12.02.02 11.02.02 16.02.02 11.02.02 11.02.02 - 13.02.02 12.02.02
_ Max-Zeit 16:11 01:58 18:27 00:01 22:19 - 16:45 16:11
Maximum _ 15.3 C 91 % 1026.2 hPa 0.0 l/m 62.3 km/h
W-NW (8 Bft)
- 4.2 C 15.3 C
Durchschnitt _ 5.9 C 65 % 1021.2 hPa #0.0 l/m 7.7 km/h (2 Bft) W-NW -0.5 C 5.3 C

Durchschnitt Minimum Temp.5.4 C
Durchschnitt Maximum Temp.6.4 C
© Kaiko 2002